createdAt,value
2018-11-14T00:00:28.891Z,84.46
2018-11-14T00:03:03.817Z,85.02
2018-11-14T00:05:38.761Z,84.48
2018-11-14T00:08:13.149Z,84.13
2018-11-14T00:10:47.886Z,83.78
2018-11-14T00:13:22.252Z,82.86
2018-11-14T00:15:56.555Z,82.42
2018-11-14T00:18:31.029Z,82.08
2018-11-14T00:21:06.200Z,81.63
2018-11-14T00:23:40.548Z,81.44
2018-11-14T00:26:14.877Z,83.57
2018-11-14T00:28:50.052Z,83.70
2018-11-14T00:31:25.388Z,82.43
2018-11-14T00:33:59.940Z,82.12
2018-11-14T00:36:34.480Z,81.91
2018-11-14T00:39:11.168Z,81.41
2018-11-14T00:41:46.078Z,81.02
2018-11-14T00:44:20.608Z,81.04
2018-11-14T00:46:55.092Z,81.06
2018-11-14T00:49:29.409Z,81.34
2018-11-14T00:52:04.325Z,82.43
2018-11-14T00:54:39.584Z,83.91
2018-11-14T00:57:14.250Z,84.68
2018-11-14T00:59:49.135Z,84.44
2018-11-14T01:02:23.784Z,84.69
2018-11-14T01:04:58.788Z,84.37
2018-11-14T01:07:33.136Z,84.63
2018-11-14T01:10:09.116Z,83.51
2018-11-14T01:12:44.260Z,83.75
2018-11-14T01:15:21.239Z,84.38
2018-11-14T01:17:55.953Z,83.66
2018-11-14T01:20:30.918Z,83.82
2018-11-14T01:23:06.432Z,83.68
2018-11-14T01:25:40.821Z,83.99
2018-11-14T01:28:15.473Z,82.80
2018-11-14T01:30:50.103Z,82.02
2018-11-14T01:33:25.142Z,81.64
2018-11-14T01:35:59.610Z,80.83
2018-11-14T01:38:34.049Z,81.27
2018-11-14T01:41:08.753Z,81.15
2018-11-14T01:43:43.996Z,81.11
2018-11-14T01:46:18.721Z,80.79
2018-11-14T01:48:53.220Z,81.29
2018-11-14T01:51:27.501Z,82.42
2018-11-14T01:54:02.256Z,81.46
2018-11-14T01:56:37.090Z,81.05
2018-11-14T01:59:11.805Z,82.41
2018-11-14T02:01:46.539Z,83.57
2018-11-14T02:04:21.003Z,84.87
2018-11-14T02:06:55.830Z,85.34
2018-11-14T02:09:30.284Z,83.88
2018-11-14T02:12:06.645Z,82.72
2018-11-14T02:14:41.793Z,82.53
2018-11-14T02:17:16.664Z,81.59
2018-11-14T02:19:51.713Z,81.56
2018-11-14T02:22:26.004Z,81.93
2018-11-14T02:25:00.949Z,82.69
2018-11-14T02:27:35.677Z,82.80
2018-11-14T02:30:15.436Z,84.04
2018-11-14T02:32:50.363Z,84.95
2018-11-14T02:35:25.371Z,84.97
2018-11-14T02:37:59.991Z,85.11
2018-11-14T02:40:35.081Z,84.48
2018-11-14T02:43:10.541Z,83.95
2018-11-14T02:45:45.604Z,83.85
2018-11-14T02:48:20.097Z,83.44
2018-11-14T02:51:05.659Z,84.03
2018-11-14T02:53:40.544Z,83.29
2018-11-14T02:56:15.253Z,83.77
2018-11-14T02:58:49.571Z,84.31
2018-11-14T03:01:23.848Z,84.56
2018-11-14T03:03:58.388Z,84.31
2018-11-14T03:06:33.268Z,84.17
2018-11-14T03:09:08.988Z,83.66
2018-11-14T03:11:43.910Z,83.57
2018-11-14T03:14:18.533Z,83.55
2018-11-14T03:16:52.800Z,82.50
2018-11-14T03:19:27.121Z,82.09
2018-11-14T03:22:01.772Z,81.77
2018-11-14T03:24:36.119Z,81.40
2018-11-14T03:27:10.748Z,81.57
2018-11-14T03:29:45.760Z,81.58
2018-11-14T03:32:20.552Z,82.52
2018-11-14T03:34:55.425Z,83.32
2018-11-14T03:37:30.192Z,84.29
2018-11-14T03:40:05.513Z,84.65
2018-11-14T03:42:40.348Z,83.28
2018-11-14T03:45:15.769Z,81.94
2018-11-14T03:47:50.149Z,81.32
2018-11-14T03:50:24.419Z,82.04
2018-11-14T03:52:58.873Z,82.58
2018-11-14T03:55:33.605Z,82.88
2018-11-14T03:58:08.045Z,82.28
2018-11-14T04:00:42.963Z,82.54
2018-11-14T04:03:17.909Z,82.83
2018-11-14T04:05:52.536Z,82.79
2018-11-14T04:08:29.034Z,82.52
2018-11-14T04:11:06.922Z,81.78
2018-11-14T04:13:42.751Z,81.97
2018-11-14T04:16:17.322Z,81.90
2018-11-14T04:18:52.513Z,81.72
2018-11-14T04:21:26.921Z,81.83
2018-11-14T04:24:01.428Z,82.31
2018-11-14T04:26:35.941Z,83.50
2018-11-14T04:29:10.632Z,84.31
2018-11-14T04:31:45.421Z,84.46
2018-11-14T04:34:20.237Z,84.30
2018-11-14T04:36:55.013Z,84.63
2018-11-14T04:39:29.781Z,84.71
2018-11-14T04:42:05.377Z,84.15
2018-11-14T04:44:40.113Z,83.77
2018-11-14T04:47:15.325Z,83.58
2018-11-14T04:49:49.665Z,83.70
2018-11-14T04:52:24.332Z,84.09
2018-11-14T04:54:58.617Z,84.07
2018-11-14T04:57:32.928Z,84.22
2018-11-14T05:00:08.108Z,83.19
2018-11-14T05:02:43.733Z,82.51
2018-11-14T05:05:19.593Z,82.22
2018-11-14T05:07:54.005Z,82.49
2018-11-14T05:10:28.419Z,83.37
2018-11-14T05:13:03.633Z,82.77
2018-11-14T05:15:38.205Z,82.24
2018-11-14T05:18:12.878Z,82.00
2018-11-14T05:20:47.905Z,82.31
2018-11-14T05:23:22.515Z,83.57
2018-11-14T05:25:57.337Z,84.08
2018-11-14T05:28:31.792Z,84.06
2018-11-14T05:31:06.113Z,83.06
2018-11-14T05:33:40.511Z,83.82
2018-11-14T05:36:14.857Z,83.91
2018-11-14T05:38:49.456Z,83.16
2018-11-14T05:41:24.197Z,82.99
2018-11-14T05:43:59.130Z,83.21
2018-11-14T05:46:34.622Z,83.32
2018-11-14T05:49:09.725Z,82.85
2018-11-14T05:51:44.308Z,82.77
2018-11-14T05:54:18.808Z,83.17
2018-11-14T05:56:53.314Z,83.43
2018-11-14T05:59:27.863Z,83.43
2018-11-14T06:02:02.969Z,83.95
2018-11-14T06:04:38.265Z,84.84
2018-11-14T06:07:12.813Z,85.55
2018-11-14T06:09:47.438Z,84.72
2018-11-14T06:12:22.084Z,84.14
2018-11-14T06:14:56.474Z,84.52
2018-11-14T06:17:30.867Z,84.82
2018-11-14T06:20:05.221Z,85.32
2018-11-14T06:22:40.021Z,85.67
2018-11-14T06:25:18.792Z,85.88
2018-11-14T06:27:54.040Z,85.62
2018-11-14T06:30:29.137Z,85.46
2018-11-14T06:33:04.649Z,85.31
2018-11-14T06:35:39.297Z,85.26
2018-11-14T06:38:14.065Z,86.10
2018-11-14T06:40:48.737Z,86.42
2018-11-14T06:43:23.396Z,86.52
2018-11-14T06:45:57.826Z,86.50
2018-11-14T06:48:32.401Z,86.91
2018-11-14T06:51:07.871Z,86.98
2018-11-14T06:53:42.576Z,86.88
2018-11-14T06:56:16.988Z,86.98
2018-11-14T06:58:52.559Z,86.93
2018-11-14T07:01:27.703Z,87.47
2018-11-14T07:04:04.621Z,87.55
2018-11-14T07:06:39.502Z,87.32
2018-11-14T07:09:14.280Z,87.28
2018-11-14T07:11:48.974Z,87.55
2018-11-14T07:14:23.860Z,87.36
2018-11-14T07:16:58.404Z,87.46
2018-11-14T07:19:32.836Z,87.37
2018-11-14T07:22:07.601Z,87.37
2018-11-14T07:24:42.171Z,87.46
2018-11-14T07:27:16.797Z,87.06
2018-11-14T07:29:51.172Z,86.90
2018-11-14T07:32:25.497Z,86.82
2018-11-14T07:34:59.968Z,86.87
2018-11-14T07:37:34.711Z,86.92
2018-11-14T07:40:12.021Z,86.78
2018-11-14T07:42:46.385Z,87.03
2018-11-14T07:45:21.213Z,87.05
2018-11-14T07:47:55.901Z,87.21
2018-11-14T07:50:30.237Z,86.99
2018-11-14T07:53:07.062Z,86.97
2018-11-14T07:55:42.014Z,86.21
2018-11-14T07:58:16.784Z,86.24
2018-11-14T08:00:52.852Z,86.06
2018-11-14T08:03:27.463Z,85.35
2018-11-14T08:06:02.480Z,85.11
2018-11-14T08:08:37.124Z,85.36
2018-11-14T08:11:11.916Z,85.30
2018-11-14T08:13:48.331Z,85.64
2018-11-14T08:16:22.979Z,85.30
2018-11-14T08:18:58.128Z,84.90
2018-11-14T08:21:32.816Z,84.89
2018-11-14T08:24:07.281Z,84.17
2018-11-14T08:26:42.048Z,83.70
2018-11-14T08:29:16.769Z,83.82
2018-11-14T08:31:51.364Z,84.58
2018-11-14T08:34:25.820Z,84.08
2018-11-14T08:37:00.418Z,84.21
2018-11-14T08:39:34.993Z,84.19
2018-11-14T08:42:09.509Z,84.27
2018-11-14T08:44:43.992Z,83.74
2018-11-14T08:47:18.385Z,83.59
2018-11-14T08:49:53.196Z,83.33
2018-11-14T08:52:27.692Z,83.43
2018-11-14T08:55:02.540Z,83.81
2018-11-14T08:57:38.057Z,83.00
2018-11-14T09:00:23.492Z,83.23
2018-11-14T09:02:58.118Z,83.23
2018-11-14T09:05:32.912Z,83.28
2018-11-14T09:08:07.657Z,82.13
2018-11-14T09:10:42.088Z,81.88
2018-11-14T09:13:17.407Z,82.58
2018-11-14T09:15:52.808Z,83.34
2018-11-14T09:18:27.581Z,83.75
2018-11-14T09:21:02.204Z,83.51
2018-11-14T09:23:36.500Z,83.29
2018-11-14T09:26:10.805Z,82.65
2018-11-14T09:28:45.417Z,82.38
2018-11-14T09:31:20.269Z,81.97
2018-11-14T09:33:55.041Z,82.39
2018-11-14T09:36:29.530Z,81.91
2018-11-14T09:39:04.565Z,81.68
2018-11-14T09:41:39.121Z,81.43
2018-11-14T09:44:13.690Z,81.22
2018-11-14T09:46:48.765Z,81.05
2018-11-14T09:49:23.097Z,81.23
2018-11-14T09:51:57.768Z,81.69
2018-11-14T09:54:32.361Z,81.71
2018-11-14T09:57:07.314Z,81.50
2018-11-14T09:59:42.389Z,80.27
2018-11-14T10:02:17.224Z,80.37
2018-11-14T10:04:51.936Z,80.29
2018-11-14T10:07:26.702Z,80.70
2018-11-14T10:10:01.188Z,80.48
2018-11-14T10:12:36.016Z,79.97
2018-11-14T10:15:13.540Z,80.47
2018-11-14T10:17:48.524Z,80.24
2018-11-14T10:20:25.694Z,80.08
2018-11-14T10:23:00.785Z,80.76
2018-11-14T10:25:35.064Z,79.94
2018-11-14T10:28:09.405Z,79.93
2018-11-14T10:30:43.686Z,80.48
2018-11-14T10:33:17.950Z,80.25
2018-11-14T10:35:52.452Z,80.08
2018-11-14T10:38:27.607Z,80.05
2018-11-14T10:41:02.094Z,79.05
2018-11-14T10:43:36.657Z,78.65
2018-11-14T10:46:11.339Z,78.51
2018-11-14T10:48:45.713Z,79.46
2018-11-14T10:51:20.412Z,79.71
2018-11-14T10:53:55.029Z,78.93
2018-11-14T10:56:29.857Z,79.23
2018-11-14T10:59:04.489Z,78.71
2018-11-14T11:01:44.436Z,78.87
2018-11-14T11:04:24.461Z,78.76
2018-11-14T11:07:03.951Z,78.57
2018-11-14T11:09:44.029Z,79.09
2018-11-14T11:12:24.188Z,79.05
2018-11-14T11:15:04.569Z,78.87
2018-11-14T11:17:44.718Z,78.38
2018-11-14T11:20:19.744Z,78.86
2018-11-14T11:22:56.217Z,78.70
2018-11-14T11:25:30.976Z,79.47
2018-11-14T11:28:05.689Z,79.25
2018-11-14T11:30:40.575Z,79.24
2018-11-14T11:33:15.168Z,80.00
2018-11-14T11:35:49.589Z,80.57
2018-11-14T11:38:24.419Z,79.78
2018-11-14T11:40:59.631Z,79.48
2018-11-14T11:43:34.121Z,79.87
2018-11-14T11:46:08.914Z,79.66
2018-11-14T11:48:43.447Z,79.54
2018-11-14T11:51:18.208Z,78.92
2018-11-14T11:53:52.756Z,79.28
2018-11-14T11:56:27.724Z,79.91
2018-11-14T11:59:02.548Z,79.48
2018-11-14T12:01:37.639Z,79.50
2018-11-14T12:04:12.349Z,79.50
2018-11-14T12:06:47.199Z,79.17
2018-11-14T12:09:21.682Z,78.94
2018-11-14T12:11:56.650Z,78.65
2018-11-14T12:14:31.819Z,79.76
2018-11-14T12:17:06.409Z,79.80
2018-11-14T12:19:41.661Z,79.99
2018-11-14T12:22:16.514Z,79.98
2018-11-14T12:24:51.288Z,81.74
2018-11-14T12:27:26.187Z,82.24
2018-11-14T12:30:01.032Z,83.20
2018-11-14T12:32:35.752Z,83.35
2018-11-14T12:35:11.530Z,82.94
2018-11-14T12:37:46.509Z,82.69
2018-11-14T12:40:21.171Z,82.66
2018-11-14T12:42:55.956Z,82.31
2018-11-14T12:45:30.409Z,81.85
2018-11-14T12:48:05.716Z,81.82
2018-11-14T12:50:40.921Z,81.21
2018-11-14T12:53:15.560Z,81.09
2018-11-14T12:55:50.117Z,80.80
2018-11-14T12:58:24.845Z,80.46
2018-11-14T13:00:59.244Z,80.46
2018-11-14T13:03:33.718Z,81.07
2018-11-14T13:06:08.224Z,80.45
2018-11-14T13:08:42.930Z,80.30
2018-11-14T13:11:17.352Z,80.30
2018-11-14T13:13:51.812Z,80.37
2018-11-14T13:16:26.677Z,79.02
2018-11-14T13:19:01.172Z,78.60
2018-11-14T13:21:36.216Z,78.39
2018-11-14T13:24:11.021Z,78.62
2018-11-14T13:26:45.485Z,78.49
2018-11-14T13:29:20.760Z,78.58
2018-11-14T13:31:55.061Z,78.28
2018-11-14T13:34:29.859Z,77.95
2018-11-14T13:37:04.652Z,78.21
2018-11-14T13:39:39.336Z,77.46
2018-11-14T13:42:14.245Z,77.61
2018-11-14T13:44:49.009Z,77.90
2018-11-14T13:47:23.960Z,78.82
2018-11-14T13:49:58.608Z,78.82
2018-11-14T13:52:33.941Z,78.14
2018-11-14T13:55:12.061Z,79.57
2018-11-14T13:57:47.946Z,80.65
2018-11-14T14:00:23.322Z,80.35
2018-11-14T14:02:57.848Z,80.77
2018-11-14T14:05:32.229Z,81.23
2018-11-14T14:08:06.891Z,81.67
2018-11-14T14:10:42.020Z,81.25
2018-11-14T14:13:16.458Z,81.54
2018-11-14T14:15:51.837Z,81.56
2018-11-14T14:18:26.311Z,82.31
2018-11-14T14:21:00.632Z,83.01
2018-11-14T14:23:35.977Z,83.10
2018-11-14T14:26:10.680Z,82.88
2018-11-14T14:28:45.369Z,82.78
2018-11-14T14:31:19.792Z,82.99
2018-11-14T14:33:54.210Z,83.51
2018-11-14T14:36:28.476Z,83.56
2018-11-14T14:39:02.780Z,83.24
2018-11-14T14:41:37.245Z,83.90
2018-11-14T14:44:12.010Z,83.98
2018-11-14T14:46:46.473Z,83.93
2018-11-14T14:49:20.812Z,84.13
2018-11-14T14:51:55.229Z,83.89
2018-11-14T14:54:30.253Z,84.07
2018-11-14T14:57:05.662Z,83.42
2018-11-14T14:59:40.605Z,83.19
2018-11-14T15:02:14.901Z,83.51
2018-11-14T15:04:49.556Z,83.20
2018-11-14T15:07:24.401Z,83.49
2018-11-14T15:09:58.696Z,84.15
2018-11-14T15:12:33.706Z,84.23
2018-11-14T15:15:31.460Z,84.57
2018-11-14T15:18:06.627Z,85.08
2018-11-14T15:20:41.377Z,85.22
2018-11-14T15:23:18.476Z,85.79
2018-11-14T15:25:53.017Z,85.78
2018-11-14T15:28:27.887Z,85.96
2018-11-14T15:31:03.073Z,85.96
2018-11-14T15:33:37.404Z,86.13
2018-11-14T15:36:12.260Z,85.96
2018-11-14T15:38:47.037Z,85.98
2018-11-14T15:41:21.934Z,86.10
2018-11-14T15:43:56.273Z,86.45
2018-11-14T15:46:30.735Z,86.06
2018-11-14T15:49:10.986Z,85.81
2018-11-14T15:51:46.246Z,86.32
2018-11-14T15:54:21.287Z,86.30
2018-11-14T15:56:56.426Z,86.00
2018-11-14T15:59:40.089Z,86.19
2018-11-14T16:02:16.335Z,86.07
2018-11-14T16:04:51.086Z,86.77
2018-11-14T16:07:25.658Z,87.12
2018-11-14T16:10:00.822Z,87.04
2018-11-14T16:12:37.462Z,86.59
2018-11-14T16:15:14.653Z,86.81
2018-11-14T16:17:49.636Z,87.16
2018-11-14T16:20:25.498Z,87.12
2018-11-14T16:22:59.868Z,87.51
2018-11-14T16:25:35.431Z,87.63
2018-11-14T16:28:09.970Z,87.73
2018-11-14T16:30:44.716Z,87.44
2018-11-14T16:33:19.206Z,87.35
2018-11-14T16:35:54.160Z,87.48
2018-11-14T16:38:28.703Z,87.33
2018-11-14T16:41:03.224Z,87.42
2018-11-14T16:43:37.715Z,87.83
2018-11-14T16:46:12.949Z,87.68
2018-11-14T16:48:47.517Z,88.05
2018-11-14T16:51:22.330Z,88.52
2018-11-14T16:53:57.113Z,88.36
2018-11-14T16:56:32.363Z,88.23
2018-11-14T16:59:08.266Z,88.18
2018-11-14T17:01:43.957Z,88.11
2018-11-14T17:04:18.741Z,88.00
2018-11-14T17:06:53.521Z,88.46
2018-11-14T17:09:28.159Z,88.95
2018-11-14T17:12:02.896Z,89.20
2018-11-14T17:14:38.104Z,89.21
2018-11-14T17:17:13.337Z,88.81
2018-11-14T17:19:48.045Z,88.83
2018-11-14T17:22:22.857Z,88.72
2018-11-14T17:24:58.606Z,88.61
2018-11-14T17:27:33.081Z,88.88
2018-11-14T17:30:10.344Z,88.93
2018-11-14T17:32:45.483Z,88.77
2018-11-14T17:35:20.105Z,88.52
2018-11-14T17:37:54.425Z,88.97
2018-11-14T17:40:29.449Z,89.34
2018-11-14T17:43:04.021Z,89.38
2018-11-14T17:45:38.995Z,89.43
2018-11-14T17:48:13.373Z,89.33
2018-11-14T17:50:48.527Z,88.87
2018-11-14T17:53:23.790Z,88.56
2018-11-14T17:55:58.614Z,88.35
2018-11-14T17:58:33.110Z,88.83
2018-11-14T18:01:08.348Z,88.36
2018-11-14T18:03:43.529Z,88.73
2018-11-14T18:06:18.260Z,88.96
2018-11-14T18:08:54.393Z,88.67
2018-11-14T18:11:28.881Z,88.37
2018-11-14T18:14:03.765Z,88.32
2018-11-14T18:16:39.289Z,88.80
2018-11-14T18:19:13.641Z,88.68
2018-11-14T18:21:48.388Z,88.23
2018-11-14T18:24:23.511Z,88.26
2018-11-14T18:26:58.429Z,87.93
2018-11-14T18:29:33.598Z,87.91
2018-11-14T18:32:08.319Z,87.90
2018-11-14T18:34:42.646Z,87.83
2018-11-14T18:37:17.417Z,87.40
2018-11-14T18:39:52.275Z,87.20
2018-11-14T18:42:27.354Z,87.66
2018-11-14T18:45:01.835Z,87.86
2018-11-14T18:47:36.482Z,87.81
2018-11-14T18:50:12.560Z,87.89
2018-11-14T18:52:48.205Z,88.00
2018-11-14T18:55:25.716Z,88.04
2018-11-14T18:58:01.762Z,88.20
2018-11-14T19:00:36.586Z,88.22
2018-11-14T19:03:11.072Z,87.99
2018-11-14T19:05:46.213Z,88.21
2018-11-14T19:08:20.905Z,87.85
2018-11-14T19:10:56.011Z,87.75
2018-11-14T19:13:30.897Z,87.82
2018-11-14T19:16:06.488Z,88.08
2018-11-14T19:18:46.769Z,88.16
2018-11-14T19:21:21.472Z,88.32
2018-11-14T19:23:56.116Z,88.08
2018-11-14T19:26:30.486Z,87.88
2018-11-14T19:29:05.577Z,88.01
2018-11-14T19:31:39.908Z,88.11
2018-11-14T19:34:14.760Z,88.52
2018-11-14T19:36:51.857Z,88.50
2018-11-14T19:39:28.608Z,88.32
2018-11-14T19:42:10.959Z,88.58
2018-11-14T19:44:47.084Z,88.58
2018-11-14T19:47:31.227Z,88.48
2018-11-14T19:50:13.759Z,88.22
2018-11-14T19:52:52.012Z,88.33
2018-11-14T19:55:28.613Z,88.75
2018-11-14T19:58:06.043Z,89.00
2018-11-14T20:00:45.574Z,89.10
2018-11-14T20:03:21.341Z,89.06
2018-11-14T20:05:58.099Z,88.55
2018-11-14T20:08:33.843Z,88.79
2018-11-14T20:11:08.431Z,88.68
2018-11-14T20:13:42.859Z,88.25
2018-11-14T20:16:17.585Z,88.28
2018-11-14T20:18:52.160Z,88.26
2018-11-14T20:21:27.055Z,88.83
2018-11-14T20:24:01.729Z,88.72
2018-11-14T20:26:36.589Z,88.81
2018-11-14T20:29:11.465Z,89.04
2018-11-14T20:31:46.116Z,88.96
2018-11-14T20:34:20.851Z,88.93
2018-11-14T20:36:56.282Z,88.96
2018-11-14T20:39:31.013Z,88.88
2018-11-14T20:42:10.509Z,88.94
2018-11-14T20:44:45.258Z,88.94
2018-11-14T20:47:19.806Z,88.79
2018-11-14T20:49:54.252Z,88.63
2018-11-14T20:52:29.459Z,88.84
2018-11-14T20:55:04.844Z,88.67
2018-11-14T20:57:40.652Z,88.65
2018-11-14T21:00:21.696Z,88.99
2018-11-14T21:02:57.795Z,88.87
2018-11-14T21:05:33.098Z,88.93
2018-11-14T21:08:08.414Z,88.81
2018-11-14T21:10:42.882Z,88.69
2018-11-14T21:13:17.746Z,88.65
2018-11-14T21:15:52.667Z,88.32
2018-11-14T21:18:26.953Z,88.54
2018-11-14T21:21:01.948Z,88.38
2018-11-14T21:23:36.898Z,88.70
2018-11-14T21:26:11.838Z,88.39
2018-11-14T21:28:46.133Z,87.78
2018-11-14T21:31:20.987Z,88.21
2018-11-14T21:33:55.724Z,88.13
2018-11-14T21:36:30.409Z,88.16
2018-11-14T21:39:08.461Z,88.25
2018-11-14T21:41:44.025Z,88.22
2018-11-14T21:44:18.505Z,88.18
2018-11-14T21:46:52.971Z,88.08
2018-11-14T21:49:29.438Z,88.53
2018-11-14T21:52:03.853Z,88.76
2018-11-14T21:54:38.417Z,88.90
2018-11-14T21:57:13.028Z,88.67
2018-11-14T21:59:47.690Z,88.81
2018-11-14T22:02:22.724Z,88.77
2018-11-14T22:04:57.613Z,88.83
2018-11-14T22:07:31.928Z,88.80
2018-11-14T22:10:09.168Z,88.70
2018-11-14T22:12:44.141Z,88.20
2018-11-14T22:15:20.092Z,88.32
2018-11-14T22:17:54.432Z,88.61
2018-11-14T22:20:29.561Z,88.77
2018-11-14T22:23:04.921Z,88.74
2018-11-14T22:25:39.800Z,88.52
2018-11-14T22:28:15.562Z,88.69
2018-11-14T22:30:50.371Z,88.54
2018-11-14T22:33:24.680Z,88.73
2018-11-14T22:36:03.900Z,88.81
2018-11-14T22:38:38.525Z,88.73
2018-11-14T22:41:12.996Z,88.57
2018-11-14T22:43:47.396Z,88.38
2018-11-14T22:46:21.705Z,88.40
2018-11-14T22:48:57.684Z,88.01
2018-11-14T22:51:32.064Z,88.06
2018-11-14T22:54:06.533Z,88.00
2018-11-14T22:56:41.429Z,88.27
2018-11-14T22:59:15.807Z,88.39
2018-11-14T23:01:50.277Z,88.74
2018-11-14T23:04:24.767Z,88.60
2018-11-14T23:06:59.480Z,88.73
2018-11-14T23:09:34.284Z,88.97
2018-11-14T23:12:08.819Z,88.73
2018-11-14T23:14:43.097Z,88.73
2018-11-14T23:17:17.924Z,88.49
2018-11-14T23:19:52.205Z,88.03
2018-11-14T23:22:26.633Z,87.93
2018-11-14T23:25:00.902Z,88.26
2018-11-14T23:27:35.221Z,88.58
2018-11-14T23:30:12.324Z,88.60
2018-11-14T23:32:48.155Z,88.80
2018-11-14T23:35:27.167Z,88.85
2018-11-14T23:38:06.116Z,88.35
2018-11-14T23:40:41.201Z,88.34
2018-11-14T23:43:15.640Z,88.71
2018-11-14T23:45:50.188Z,88.46
2018-11-14T23:48:24.888Z,88.41
2018-11-14T23:51:00.830Z,88.40
2018-11-14T23:53:35.876Z,88.77
2018-11-14T23:56:11.132Z,88.89
2018-11-14T23:58:45.592Z,88.59
